Time;durP1;ratioP1;P1;durP2;ratioP2;P2;SDS_P1;SDS_P2;PMS_P1;PMS_P2;Temp;Humidity;BMP_temperature;BMP_pressure;BME280_temperature;BME280_humidity;BME280_pressure;Samples;Min_cycle;Max_cycle;Signal;HPM_P1;HPM_P2
2022/01/24 00:00:12;;;;;;;;;;;;;;;;;;5003859;28;1200;-77
2022/01/24 00:02:37;;;;;;;;;;;;;;;;;;5002597;28;1644;-78
2022/01/24 00:05:03;;;;;;;;;;;;;;;;;;5002263;28;1390;-78
2022/01/24 00:07:28;;;;;;;;;;;;;;;;;;5004068;28;1597;-77
2022/01/24 00:09:57;;;;;;;;;;;;;;;;;;5004161;28;1270;-77
2022/01/24 00:12:34;;;;;;;;;;;;;;;;;;5008548;28;1568;-78
2022/01/24 00:15:09;;;;;;;;;;;;;;;;;;5009315;28;1902;-78
2022/01/24 00:17:38;;;;;;;;;;;;;;;;;;5013114;28;1355;-78
2022/01/24 00:28:06;;;;;;;;;;;;;;;;;;5012395;28;1740;-78
2022/01/24 00:30:31;;;;;;;;;;;;;;;;;;5012991;28;981;-77
2022/01/24 00:32:56;;;;;;;;;;;;;;;;;;5009563;28;1585;-77
2022/01/24 00:35:22;;;;;;;;;;;;;;;;;;5012572;28;1976;-77
2022/01/24 00:37:47;;;;;;;;;;;;;;;;;;5008223;28;1660;-77
2022/01/24 00:40:12;;;;;;;;;;;;;;;;;;5012893;28;1433;-77
2022/01/24 00:42:51;;;;;;;;;;;;;;;;;;4985346;28;1607;-77
2022/01/24 00:45:31;;;;;;;;;;;;;;;;;;4992815;28;1651;-77
2022/01/24 00:53:18;;;;;;;;;;;;;;;;;;4995181;28;1616;-77
2022/01/24 00:55:44;;;;;;;;;;;;;;;;;;5003294;28;1604;-77
2022/01/24 00:58:09;;;;;;;;;;;;;;;;;;5010323;28;1589;-77
2022/01/24 01:00:34;;;;;;;;;;;;;;;;;;5007093;28;1595;-77
2022/01/24 01:03:00;;;;;;;;;;;;;;;;;;5006011;28;1525;-77
2022/01/24 01:08:00;;;;;;;;;;;;;;;;;;5007934;28;1619;-77
2022/01/24 01:18:38;;;;;;;;;;;;;;;;;;5011869;28;1750;-77
2022/01/24 01:21:16;;;;;;;;;;;;;;;;;;5014678;28;1593;-77
2022/01/24 01:23:45;;;;;;;;;;;;;;;;;;5014011;28;1612;-77
2022/01/24 01:26:36;;;;;;;;;;;;;;;;;;5011079;28;1629;-77
2022/01/24 01:29:01;;;;;;;;;;;;;;;;;;5013629;28;1810;-77
2022/01/24 01:31:41;;;;;;;;;;;;;;;;;;4997546;28;1326;-77
2022/01/24 01:37:12;;;;;;;;;;;;;;;;;;5016018;28;1257;-77
2022/01/24 01:53:07;;;;;;;;;;;;;;;;;;5005852;28;1359;-77
2022/01/24 01:55:39;;;;;;;;;;;;;;;;;;5006788;28;2008;-77
2022/01/24 01:58:08;;;;;;;;;;;;;;;;;;5007413;28;1505;-77
2022/01/24 02:00:34;;;;;;;;;;;;;;;;;;5013658;28;1708;-78
2022/01/24 02:03:00;;;;;;;;;;;;;;;;;;5015383;28;1016;-78
2022/01/24 02:05:25;;;;;;;;;;;;;;;;;;5011911;28;1629;-78
2022/01/24 02:07:51;;;;;;;;;;;;;;;;;;5014022;28;953;-78
2022/01/24 02:10:17;;;;;;;;;;;;;;;;;;5001371;28;1636;-78
2022/01/24 02:12:42;;;;;;;;;;;;;;;;;;5014500;28;1384;-78
2022/01/24 02:15:07;;;;;;;;;;;;;;;;;;5014846;28;1954;-78
2022/01/24 02:17:48;;;;;;;;;;;;;;;;;;5013726;28;1820;-78
2022/01/24 02:20:37;;;;;;;;;;;;;;;;;;5014542;28;1414;-77
2022/01/24 02:23:18;;;;;;;;;;;;;;;;;;5002811;28;1592;-77
2022/01/24 02:25:43;;;;;;;;;;;;;;;;;;5006881;28;1691;-77
2022/01/24 02:28:11;;;;;;;;;;;;;;;;;;5013028;28;1378;-77
2022/01/24 02:33:13;;;;;;;;;;;;;;;;;;5013749;28;787;-77
2022/01/24 02:35:39;;;;;;;;;;;;;;;;;;5011420;28;1600;-77
2022/01/24 02:38:11;;;;;;;;;;;;;;;;;;5011754;28;1763;-77
2022/01/24 02:40:36;;;;;;;;;;;;;;;;;;5005216;28;1715;-77
2022/01/24 02:48:21;;;;;;;;;;;;;;;;;;5012758;28;1600;-77
2022/01/24 02:48:45;;;;;;;;;;;;;;;;;;5012240;28;1755;-78
2022/01/24 02:53:38;;;;;;;;;;;;;;;;;;5011992;28;1970;-78
2022/01/24 02:56:04;;;;;;;;;;;;;;;;;;5011036;28;1643;-78
2022/01/24 02:58:29;;;;;;;;;;;;;;;;;;5010080;28;1694;-77
2022/01/24 03:00:55;;;;;;;;;;;;;;;;;;5013803;28;1279;-78
2022/01/24 03:03:21;;;;;;;;;;;;;;;;;;4994023;28;1641;-78
2022/01/24 03:05:46;;;;;;;;;;;;;;;;;;5027386;28;1576;-78
2022/01/24 03:08:13;;;;;;;;;;;;;;;;;;5013645;28;1399;-78
2022/01/24 03:10:44;;;;;;;;;;;;;;;;;;5004168;28;1602;-78
2022/01/24 03:15:45;;;;;;;;;;;;;;;;;;5012237;28;1600;-78
2022/01/24 03:18:10;;;;;;;;;;;;;;;;;;5012856;28;854;-78
2022/01/24 03:20:36;;;;;;;;;;;;;;;;;;5012597;28;1627;-77
2022/01/24 03:23:01;;;;;;;;;;;;;;;;;;5013439;28;1386;-77
2022/01/24 03:25:26;;;;;;;;;;;;;;;;;;4998439;28;1561;-77
2022/01/24 03:27:51;;;;;;;;;;;;;;;;;;4997564;28;1539;-77
2022/01/24 03:30:17;;;;;;;;;;;;;;;;;;4993980;28;1580;-77
2022/01/24 03:32:42;;;;;;;;;;;;;;;;;;5011794;28;2120;-78
2022/01/24 03:35:07;;;;;;;;;;;;;;;;;;5001111;28;1898;-78
2022/01/24 03:37:36;;;;;;;;;;;;;;;;;;5006541;28;1639;-78
2022/01/24 03:40:02;;;;;;;;;;;;;;;;;;5012564;28;1002;-78
2022/01/24 03:42:27;;;;;;;;;;;;;;;;;;5011504;28;1651;-78
2022/01/24 03:44:57;;;;;;;;;;;;;;;;;;5011475;28;1429;-78
2022/01/24 03:50:02;;;;;;;;;;;;;;;;;;5013914;28;846;-77
2022/01/24 03:52:30;;;;;;;;;;;;;;;;;;5011808;28;1655;-77
2022/01/24 03:54:56;;;;;;;;;;;;;;;;;;5008934;28;1973;-77
2022/01/24 03:57:21;;;;;;;;;;;;;;;;;;5006726;28;1641;-77
2022/01/24 03:59:46;;;;;;;;;;;;;;;;;;5013413;28;807;-77
2022/01/24 04:02:12;;;;;;;;;;;;;;;;;;5012326;28;894;-77
2022/01/24 04:04:37;;;;;;;;;;;;;;;;;;5010792;28;1708;-77
2022/01/24 04:07:03;;;;;;;;;;;;;;;;;;4996922;28;1323;-78
2022/01/24 04:09:28;;;;;;;;;;;;;;;;;;5020631;28;1596;-78
2022/01/24 04:11:56;;;;;;;;;;;;;;;;;;5010326;28;1549;-78
2022/01/24 04:14:38;;;;;;;;;;;;;;;;;;5010769;28;1973;-78
2022/01/24 04:21:19;;;;;;;;;;;;;;;;;;5011739;28;1655;-78
2022/01/24 04:22:16;;;;;;;;;;;;;;;;;;5011811;28;1639;-77
2022/01/24 04:24:42;;;;;;;;;;;;;;;;;;5010316;28;1688;-77
2022/01/24 04:27:07;;;;;;;;;;;;;;;;;;5002646;28;1744;-77
2022/01/24 04:29:33;;;;;;;;;;;;;;;;;;5010735;28;1578;-77
2022/01/24 04:31:58;;;;;;;;;;;;;;;;;;5010635;28;1574;-77
2022/01/24 04:34:23;;;;;;;;;;;;;;;;;;5011433;28;1898;-77
2022/01/24 04:36:48;;;;;;;;;;;;;;;;;;5008686;28;1670;-77
2022/01/24 04:39:14;;;;;;;;;;;;;;;;;;5008430;28;1640;-77
2022/01/24 04:41:43;;;;;;;;;;;;;;;;;;5002994;28;1616;-77
2022/01/24 04:52:10;;;;;;;;;;;;;;;;;;5015523;28;1596;-78
2022/01/24 04:54:44;;;;;;;;;;;;;;;;;;4999570;28;1899;-77
2022/01/24 04:57:14;;;;;;;;;;;;;;;;;;5010268;28;1676;-78
2022/01/24 04:59:39;;;;;;;;;;;;;;;;;;4998640;28;1635;-78
2022/01/24 05:02:05;;;;;;;;;;;;;;;;;;5015423;28;815;-78
2022/01/24 05:04:30;;;;;;;;;;;;;;;;;;5014946;28;1608;-78
2022/01/24 05:06:55;;;;;;;;;;;;;;;;;;5010450;28;1359;-78
2022/01/24 05:09:21;;;;;;;;;;;;;;;;;;5000899;28;1627;-78
2022/01/24 05:11:59;;;;;;;;;;;;;;;;;;5016491;28;865;-78
2022/01/24 05:25:22;;;;;;;;;;;;;;;;;;4996687;28;1445;-78
2022/01/24 05:27:47;;;;;;;;;;;;;;;;;;5003571;28;1609;-78
2022/01/24 05:30:13;;;;;;;;;;;;;;;;;;5000390;28;1554;-78
2022/01/24 05:32:38;;;;;;;;;;;;;;;;;;4998700;28;1593;-78
2022/01/24 05:35:03;;;;;;;;;;;;;;;;;;5002280;28;1970;-78
2022/01/24 05:37:29;;;;;;;;;;;;;;;;;;4994581;28;1643;-77
2022/01/24 05:39:54;;;;;;;;;;;;;;;;;;5013339;28;1370;-78
2022/01/24 05:42:21;;;;;;;;;;;;;;;;;;5015674;28;1425;-78
2022/01/24 05:44:47;;;;;;;;;;;;;;;;;;5014082;28;1662;-78
2022/01/24 05:47:12;;;;;;;;;;;;;;;;;;5013748;28;1376;-78
2022/01/24 05:49:37;;;;;;;;;;;;;;;;;;5008496;28;1685;-78
2022/01/24 05:52:08;;;;;;;;;;;;;;;;;;5012790;28;1605;-78
2022/01/24 05:54:34;;;;;;;;;;;;;;;;;;5013401;28;1890;-78
2022/01/24 05:57:00;;;;;;;;;;;;;;;;;;5019694;28;1800;-78
2022/01/24 05:59:25;;;;;;;;;;;;;;;;;;5014198;28;1616;-78
2022/01/24 06:01:50;;;;;;;;;;;;;;;;;;5004443;28;1755;-78
2022/01/24 06:04:15;;;;;;;;;;;;;;;;;;5013302;28;1568;-78
2022/01/24 06:06:40;;;;;;;;;;;;;;;;;;5012466;28;1713;-78
2022/01/24 06:09:06;;;;;;;;;;;;;;;;;;5012542;28;1566;-78
2022/01/24 06:11:31;;;;;;;;;;;;;;;;;;5012672;28;1580;-78
2022/01/24 06:13:58;;;;;;;;;;;;;;;;;;5012027;28;1902;-78
2022/01/24 06:16:23;;;;;;;;;;;;;;;;;;5005776;28;1647;-78
2022/01/24 06:18:48;;;;;;;;;;;;;;;;;;5006687;28;1536;-79
2022/01/24 06:21:13;;;;;;;;;;;;;;;;;;5013556;28;1612;-78
2022/01/24 06:23:38;;;;;;;;;;;;;;;;;;5012608;28;1609;-78
2022/01/24 06:26:04;;;;;;;;;;;;;;;;;;5004049;28;1641;-78
2022/01/24 06:28:29;;;;;;;;;;;;;;;;;;5012046;28;1581;-78
2022/01/24 06:30:54;;;;;;;;;;;;;;;;;;5009402;28;1603;-78
2022/01/24 06:33:19;;;;;;;;;;;;;;;;;;5012852;28;1522;-78
2022/01/24 06:35:44;;;;;;;;;;;;;;;;;;5013126;28;1992;-77
2022/01/24 06:38:09;;;;;;;;;;;;;;;;;;5010675;28;1662;-77
2022/01/24 06:40:35;;;;;;;;;;;;;;;;;;5007795;28;1605;-77
2022/01/24 06:43:00;;;;;;;;;;;;;;;;;;5011702;28;1578;-77
2022/01/24 06:45:25;;;;;;;;;;;;;;;;;;5012292;28;1528;-77
2022/01/24 06:47:51;;;;;;;;;;;;;;;;;;5013282;28;1560;-77
2022/01/24 06:50:16;;;;;;;;;;;;;;;;;;5011025;28;1584;-77
2022/01/24 06:52:41;;;;;;;;;;;;;;;;;;5011396;28;1810;-78
2022/01/24 06:55:07;;;;;;;;;;;;;;;;;;5014313;28;1910;-78
2022/01/24 06:57:32;;;;;;;;;;;;;;;;;;4976882;28;1646;-78
2022/01/24 06:59:57;;;;;;;;;;;;;;;;;;5024403;28;1608;-78
2022/01/24 07:02:22;;;;;;;;;;;;;;;;;;5011200;28;1565;-78
2022/01/24 07:04:47;;;;;;;;;;;;;;;;;;5001228;28;1817;-77
2022/01/24 07:07:13;;;;;;;;;;;;;;;;;;5010259;28;1628;-77
2022/01/24 07:09:38;;;;;;;;;;;;;;;;;;5008427;28;1432;-77
2022/01/24 07:12:04;;;;;;;;;;;;;;;;;;4996411;28;1631;-78
2022/01/24 07:14:29;;;;;;;;;;;;;;;;;;5000002;28;1914;-77
2022/01/24 07:19:19;;;;;;;;;;;;;;;;;;5010763;28;1631;-78
2022/01/24 07:21:45;;;;;;;;;;;;;;;;;;5011981;28;1426;-78
2022/01/24 07:24:10;;;;;;;;;;;;;;;;;;5010232;28;1564;-78
2022/01/24 07:26:35;;;;;;;;;;;;;;;;;;4998702;28;1657;-78
2022/01/24 07:29:00;;;;;;;;;;;;;;;;;;5008570;28;1725;-78
2022/01/24 07:31:25;;;;;;;;;;;;;;;;;;5006909;28;1516;-78
2022/01/24 07:33:51;;;;;;;;;;;;;;;;;;5010894;28;1902;-78
2022/01/24 07:36:16;;;;;;;;;;;;;;;;;;5013525;28;1527;-78
2022/01/24 07:38:41;;;;;;;;;;;;;;;;;;5013586;28;984;-77
2022/01/24 07:41:07;;;;;;;;;;;;;;;;;;5019115;28;1601;-77
2022/01/24 07:43:32;;;;;;;;;;;;;;;;;;5011666;28;1335;-77
2022/01/24 07:45:57;;;;;;;;;;;;;;;;;;5004480;28;1607;-77
2022/01/24 07:48:23;;;;;;;;;;;;;;;;;;4993115;28;1486;-77
2022/01/24 07:50:51;;;;;;;;;;;;;;;;;;5000602;28;1589;-77
2022/01/24 07:53:16;;;;;;;;;;;;;;;;;;5004997;28;1641;-77
2022/01/24 07:55:42;;;;;;;;;;;;;;;;;;5010970;28;1910;-77
2022/01/24 07:58:07;;;;;;;;;;;;;;;;;;5010769;28;1544;-78
2022/01/24 08:00:32;;;;;;;;;;;;;;;;;;5010833;28;925;-77
2022/01/24 08:02:58;;;;;;;;;;;;;;;;;;5012751;28;1017;-77
2022/01/24 08:05:23;;;;;;;;;;;;;;;;;;5011533;28;1615;-77
2022/01/24 08:07:48;;;;;;;;;;;;;;;;;;5012252;28;1374;-77
2022/01/24 08:10:13;;;;;;;;;;;;;;;;;;5009302;28;1592;-77
2022/01/24 08:12:39;;;;;;;;;;;;;;;;;;4999071;28;1619;-77
2022/01/24 08:15:05;;;;;;;;;;;;;;;;;;5007619;28;1910;-77
2022/01/24 08:17:30;;;;;;;;;;;;;;;;;;5001218;28;1617;-76
2022/01/24 08:19:55;;;;;;;;;;;;;;;;;;4991563;28;1819;-77
2022/01/24 08:22:21;;;;;;;;;;;;;;;;;;5022027;28;1695;-77
2022/01/24 08:24:46;;;;;;;;;;;;;;;;;;5011576;28;1599;-76
2022/01/24 08:27:11;;;;;;;;;;;;;;;;;;5009634;28;1632;-78
2022/01/24 08:29:37;;;;;;;;;;;;;;;;;;5004647;28;1611;-78
2022/01/24 08:32:02;;;;;;;;;;;;;;;;;;5003101;28;1620;-78
2022/01/24 08:34:27;;;;;;;;;;;;;;;;;;5001145;28;1987;-78
2022/01/24 08:36:52;;;;;;;;;;;;;;;;;;5001794;28;1583;-78
2022/01/24 08:39:17;;;;;;;;;;;;;;;;;;5002827;28;1720;-78
2022/01/24 08:44:32;;;;;;;;;;;;;;;;;;5001863;28;1643;-78
2022/01/24 08:46:58;;;;;;;;;;;;;;;;;;5001860;28;1311;-78
2022/01/24 08:49:23;;;;;;;;;;;;;;;;;;5001976;28;1576;-78
2022/01/24 08:51:48;;;;;;;;;;;;;;;;;;5003599;28;1246;-78
2022/01/24 08:54:13;;;;;;;;;;;;;;;;;;5002896;28;1976;-78
2022/01/24 08:56:39;;;;;;;;;;;;;;;;;;5002557;28;1615;-78
2022/01/24 08:59:04;;;;;;;;;;;;;;;;;;5003429;28;1274;-77
2022/01/24 09:01:30;;;;;;;;;;;;;;;;;;5000928;28;1812;-78
2022/01/24 09:03:55;;;;;;;;;;;;;;;;;;5002273;28;1540;-80
2022/01/24 09:06:21;;;;;;;;;;;;;;;;;;5001441;28;1631;-80
2022/01/24 09:08:55;;;;;;;;;;;;;;;;;;5001713;28;1315;-80
2022/01/24 09:11:20;;;;;;;;;;;;;;;;;;4984925;28;1264;-80
2022/01/24 09:13:46;;;;;;;;;;;;;;;;;;5001674;28;1906;-78
2022/01/24 09:16:11;;;;;;;;;;;;;;;;;;5001040;28;1355;-78
2022/01/24 09:18:36;;;;;;;;;;;;;;;;;;5001293;28;1582;-79
2022/01/24 09:21:01;;;;;;;;;;;;;;;;;;5001779;28;1370;-80
2022/01/24 09:23:26;;;;;;;;;;;;;;;;;;5000739;28;1619;-80
2022/01/24 09:25:52;;;;;;;;;;;;;;;;;;5002960;28;1353;-80
2022/01/24 09:28:17;;;;;;;;;;;;;;;;;;4999818;28;1641;-80
2022/01/24 09:30:42;;;;;;;;;;;;;;;;;;5001338;28;1473;-80
2022/01/24 09:33:11;;;;;;;;;;;;;;;;;;5004352;28;1607;-79
2022/01/24 09:35:37;;;;;;;;;;;;;;;;;;5004105;28;1902;-80
2022/01/24 09:38:02;;;;;;;;;;;;;;;;;;5005231;28;1259;-80
2022/01/24 09:40:27;;;;;;;;;;;;;;;;;;5002001;28;1672;-80
2022/01/24 09:42:53;;;;;;;;;;;;;;;;;;5002245;28;1502;-80
2022/01/24 09:45:18;;;;;;;;;;;;;;;;;;5005533;28;1544;-79
2022/01/24 09:47:44;;;;;;;;;;;;;;;;;;5000894;28;1676;-80
2022/01/24 09:50:10;;;;;;;;;;;;;;;;;;5003095;28;1615;-80
2022/01/24 09:52:37;;;;;;;;;;;;;;;;;;4991245;28;1630;-80
2022/01/24 09:55:02;;;;;;;;;;;;;;;;;;5005161;28;1902;-80
2022/01/24 09:57:27;;;;;;;;;;;;;;;;;;5004322;28;1714;-80
2022/01/24 09:59:55;;;;;;;;;;;;;;;;;;5001289;28;1739;-80
2022/01/24 10:02:22;;;;;;;;;;;;;;;;;;5004451;28;1752;-80
2022/01/24 10:04:47;;;;;;;;;;;;;;;;;;5004791;28;1699;-80
2022/01/24 10:07:15;;;;;;;;;;;;;;;;;;5000122;28;1481;-80
2022/01/24 10:09:44;;;;;;;;;;;;;;;;;;4994313;28;1524;-80
2022/01/24 10:12:25;;;;;;;;;;;;;;;;;;5004316;28;1602;-80
2022/01/24 10:17:37;;;;;;;;;;;;;;;;;;5005715;28;1369;-80
2022/01/24 10:20:21;;;;;;;;;;;;;;;;;;5004023;28;1234;-79
2022/01/24 10:22:59;;;;;;;;;;;;;;;;;;5003020;28;1618;-79
2022/01/24 10:25:24;;;;;;;;;;;;;;;;;;5003156;28;3468;-80
2022/01/24 10:27:50;;;;;;;;;;;;;;;;;;5004639;28;1548;-80
2022/01/24 10:30:16;;;;;;;;;;;;;;;;;;5002919;28;1389;-80
2022/01/24 10:32:42;;;;;;;;;;;;;;;;;;5002180;28;1655;-79
2022/01/24 10:35:23;;;;;;;;;;;;;;;;;;5003000;28;1911;-80
2022/01/24 10:37:53;;;;;;;;;;;;;;;;;;5003426;28;1715;-80
2022/01/24 10:40:46;;;;;;;;;;;;;;;;;;5003257;28;1298;-80
2022/01/24 10:43:19;;;;;;;;;;;;;;;;;;5000559;28;1570;-80
2022/01/24 10:45:45;;;;;;;;;;;;;;;;;;5003296;28;1651;-80
2022/01/24 10:48:10;;;;;;;;;;;;;;;;;;5004474;28;1727;-80
2022/01/24 10:50:36;;;;;;;;;;;;;;;;;;5003856;28;1325;-81
2022/01/24 10:53:11;;;;;;;;;;;;;;;;;;5002262;28;1649;-80
2022/01/24 10:55:36;;;;;;;;;;;;;;;;;;5001508;28;1949;-78
2022/01/24 10:58:06;;;;;;;;;;;;;;;;;;5003529;28;1568;-83
2022/01/24 11:00:31;;;;;;;;;;;;;;;;;;5002624;28;1581;-83
2022/01/24 11:02:59;;;;;;;;;;;;;;;;;;5002396;28;1677;-82
2022/01/24 11:05:26;;;;;;;;;;;;;;;;;;5003454;28;1562;-82
2022/01/24 11:07:54;;;;;;;;;;;;;;;;;;5007759;28;1505;-82
2022/01/24 11:10:19;;;;;;;;;;;;;;;;;;5006088;28;1718;-81
2022/01/24 11:12:45;;;;;;;;;;;;;;;;;;5005642;28;1680;-80
2022/01/24 11:15:11;;;;;;;;;;;;;;;;;;5009363;28;1878;-80
2022/01/24 11:17:36;;;;;;;;;;;;;;;;;;5002800;28;1672;-82
2022/01/24 11:20:03;;;;;;;;;;;;;;;;;;5001301;28;1636;-81
2022/01/24 11:22:30;;;;;;;;;;;;;;;;;;5003569;28;1285;-83
2022/01/24 11:24:59;;;;;;;;;;;;;;;;;;5001799;28;1631;-83
2022/01/24 11:27:24;;;;;;;;;;;;;;;;;;5004271;28;1716;-83
2022/01/24 11:29:53;;;;;;;;;;;;;;;;;;5001451;28;1274;-83
2022/01/24 11:32:26;;;;;;;;;;;;;;;;;;4984543;28;1618;-83
2022/01/24 11:34:53;;;;;;;;;;;;;;;;;;5000183;28;1902;-83
2022/01/24 11:37:30;;;;;;;;;;;;;;;;;;4999641;28;1474;-82
2022/01/24 11:39:55;;;;;;;;;;;;;;;;;;5002446;28;1560;-81
2022/01/24 11:42:27;;;;;;;;;;;;;;;;;;5002890;28;1309;-81
2022/01/24 11:44:53;;;;;;;;;;;;;;;;;;4985897;28;1715;-82
2022/01/24 11:47:19;;;;;;;;;;;;;;;;;;5004272;28;1282;-82
2022/01/24 11:49:44;;;;;;;;;;;;;;;;;;5002428;28;1322;-83
2022/01/24 11:52:13;;;;;;;;;;;;;;;;;;5003037;28;1805;-82
2022/01/24 11:57:23;;;;;;;;;;;;;;;;;;5005417;28;1576;-81
2022/01/24 11:59:48;;;;;;;;;;;;;;;;;;5002829;28;1251;-83
2022/01/24 12:02:15;;;;;;;;;;;;;;;;;;5002918;28;1615;-82
2022/01/24 12:04:57;;;;;;;;;;;;;;;;;;5001380;28;1333;-82
2022/01/24 12:07:24;;;;;;;;;;;;;;;;;;5002150;28;1679;-83
2022/01/24 12:09:50;;;;;;;;;;;;;;;;;;5002795;28;1723;-83
2022/01/24 12:12:35;;;;;;;;;;;;;;;;;;5002969;28;1214;-82
2022/01/24 12:15:01;;;;;;;;;;;;;;;;;;5000631;28;1980;-82
2022/01/24 12:17:46;;;;;;;;;;;;;;;;;;5002758;28;1637;-82
2022/01/24 12:20:29;;;;;;;;;;;;;;;;;;5002175;28;1259;-83
2022/01/24 12:22:55;;;;;;;;;;;;;;;;;;5002076;28;1580;-82
2022/01/24 12:25:40;;;;;;;;;;;;;;;;;;5000023;28;1382;-82
2022/01/24 12:28:18;;;;;;;;;;;;;;;;;;5001394;28;1572;-82
2022/01/24 12:31:13;;;;;;;;;;;;;;;;;;5000785;28;1652;-82
2022/01/24 12:33:42;;;;;;;;;;;;;;;;;;5000089;28;1903;-82
2022/01/24 12:36:10;;;;;;;;;;;;;;;;;;4998044;28;1676;-83
2022/01/24 12:38:42;;;;;;;;;;;;;;;;;;5001064;28;1728;-83
2022/01/24 12:41:14;;;;;;;;;;;;;;;;;;4997072;28;1700;-83
2022/01/24 12:43:53;;;;;;;;;;;;;;;;;;5000362;28;1607;-84
2022/01/24 12:46:26;;;;;;;;;;;;;;;;;;5000754;28;1651;-85
2022/01/24 12:48:56;;;;;;;;;;;;;;;;;;5000965;28;1689;-84
2022/01/24 12:51:21;;;;;;;;;;;;;;;;;;4984097;28;1793;-84
2022/01/24 12:53:47;;;;;;;;;;;;;;;;;;5001105;28;1907;-84
2022/01/24 12:56:13;;;;;;;;;;;;;;;;;;4991281;28;1636;-84
2022/01/24 12:58:46;;;;;;;;;;;;;;;;;;5003179;28;1578;-83
2022/01/24 13:01:20;;;;;;;;;;;;;;;;;;5000673;28;1505;-84
2022/01/24 13:03:46;;;;;;;;;;;;;;;;;;5002252;28;1689;-84
2022/01/24 13:06:13;;;;;;;;;;;;;;;;;;5005629;28;1623;-83
2022/01/24 13:08:38;;;;;;;;;;;;;;;;;;5003483;28;1456;-79
2022/01/24 13:11:05;;;;;;;;;;;;;;;;;;5005541;28;1708;-83
2022/01/24 13:13:31;;;;;;;;;;;;;;;;;;5003917;28;1656;-83
2022/01/24 13:21:26;;;;;;;;;;;;;;;;;;5005241;28;1294;-81
2022/01/24 13:23:56;;;;;;;;;;;;;;;;;;5005378;28;1254;-83
2022/01/24 13:26:21;;;;;;;;;;;;;;;;;;5007541;28;1738;-84
2022/01/24 13:28:46;;;;;;;;;;;;;;;;;;5005400;28;1514;-82
2022/01/24 13:31:12;;;;;;;;;;;;;;;;;;5003371;28;1656;-82
2022/01/24 13:33:39;;;;;;;;;;;;;;;;;;5003323;28;1671;-83
2022/01/24 13:36:07;;;;;;;;;;;;;;;;;;5002614;28;1982;-83
2022/01/24 13:38:33;;;;;;;;;;;;;;;;;;5002012;28;1568;-81
2022/01/24 13:41:00;;;;;;;;;;;;;;;;;;5005289;28;1486;-81
2022/01/24 13:43:35;;;;;;;;;;;;;;;;;;5003598;28;1438;-81
2022/01/24 13:46:01;;;;;;;;;;;;;;;;;;5004999;28;1691;-82
2022/01/24 13:48:26;;;;;;;;;;;;;;;;;;5003559;28;1644;-83
2022/01/24 13:50:52;;;;;;;;;;;;;;;;;;5005043;28;1262;-82
2022/01/24 13:53:36;;;;;;;;;;;;;;;;;;5004067;28;1635;-82
2022/01/24 13:56:14;;;;;;;;;;;;;;;;;;5003800;28;1895;-83
2022/01/24 13:58:39;;;;;;;;;;;;;;;;;;5005454;28;1720;-82
2022/01/24 14:01:05;;;;;;;;;;;;;;;;;;5005038;28;1654;-84
2022/01/24 14:03:30;;;;;;;;;;;;;;;;;;5001378;28;1569;-84
2022/01/24 14:06:14;;;;;;;;;;;;;;;;;;5004364;28;1498;-83
2022/01/24 14:08:39;;;;;;;;;;;;;;;;;;5003624;28;1227;-83
2022/01/24 14:11:14;;;;;;;;;;;;;;;;;;5004075;28;1549;-83
2022/01/24 14:13:45;;;;;;;;;;;;;;;;;;5003456;28;1656;-83
2022/01/24 14:16:22;;;;;;;;;;;;;;;;;;5012752;28;1544;-82
2022/01/24 14:18:58;;;;;;;;;;;;;;;;;;5002704;28;1568;-82
2022/01/24 14:21:24;;;;;;;;;;;;;;;;;;5002991;28;1202;-82
2022/01/24 14:23:50;;;;;;;;;;;;;;;;;;5004738;28;1754;-82
2022/01/24 14:26:16;;;;;;;;;;;;;;;;;;5002854;28;1576;-82
2022/01/24 14:28:45;;;;;;;;;;;;;;;;;;5003316;28;1624;-83
2022/01/24 14:31:13;;;;;;;;;;;;;;;;;;5003867;28;1231;-83
2022/01/24 14:33:38;;;;;;;;;;;;;;;;;;5000821;28;1407;-82
2022/01/24 14:36:11;;;;;;;;;;;;;;;;;;5004586;28;1911;-82
2022/01/24 14:38:37;;;;;;;;;;;;;;;;;;5004710;28;1225;-82
2022/01/24 14:41:25;;;;;;;;;;;;;;;;;;5005278;28;1632;-82
2022/01/24 14:46:36;;;;;;;;;;;;;;;;;;5005314;28;1624;-81
2022/01/24 14:49:04;;;;;;;;;;;;;;;;;;5004240;28;1274;-81
2022/01/24 14:51:31;;;;;;;;;;;;;;;;;;5008156;28;1826;-81
2022/01/24 14:53:58;;;;;;;;;;;;;;;;;;5006527;28;1902;-81
2022/01/24 14:56:24;;;;;;;;;;;;;;;;;;5001035;28;1620;-80
2022/01/24 14:58:49;;;;;;;;;;;;;;;;;;5005313;28;1247;-83
2022/01/24 15:01:14;;;;;;;;;;;;;;;;;;5002444;28;1251;-81
2022/01/24 15:03:41;;;;;;;;;;;;;;;;;;5001978;28;1576;-82
2022/01/24 15:06:06;;;;;;;;;;;;;;;;;;5001309;28;1604;-84
2022/01/24 15:08:32;;;;;;;;;;;;;;;;;;5001329;28;1667;-83
2022/01/24 15:10:57;;;;;;;;;;;;;;;;;;5002160;28;1299;-84
2022/01/24 15:13:25;;;;;;;;;;;;;;;;;;5001355;28;1745;-84
2022/01/24 15:16:02;;;;;;;;;;;;;;;;;;5001733;28;1961;-84
2022/01/24 15:24:13;;;;;;;;;;;;;;;;;;5002016;28;2608;-83
2022/01/24 15:26:39;;;;;;;;;;;;;;;;;;5000837;28;1631;-83
2022/01/24 15:29:04;;;;;;;;;;;;;;;;;;5000769;28;3579;-83
2022/01/24 15:31:29;;;;;;;;;;;;;;;;;;5001866;28;1497;-83
2022/01/24 15:33:54;;;;;;;;;;;;;;;;;;5002287;28;1963;-83
2022/01/24 15:36:19;;;;;;;;;;;;;;;;;;5002295;28;1309;-83
2022/01/24 15:38:45;;;;;;;;;;;;;;;;;;5002845;28;1718;-83
2022/01/24 15:41:10;;;;;;;;;;;;;;;;;;5003971;28;1214;-83
2022/01/24 15:43:52;;;;;;;;;;;;;;;;;;5001406;28;2625;-83
2022/01/24 15:48:43;;;;;;;;;;;;;;;;;;5008012;28;2325;-82
2022/01/24 15:51:12;;;;;;;;;;;;;;;;;;5007687;28;2177;-82
2022/01/24 15:53:37;;;;;;;;;;;;;;;;;;5009956;28;1811;-82
2022/01/24 15:56:15;;;;;;;;;;;;;;;;;;5005477;28;1883;-83
2022/01/24 15:58:41;;;;;;;;;;;;;;;;;;5002871;28;1671;-83
2022/01/24 16:01:06;;;;;;;;;;;;;;;;;;4985241;28;1564;-80
2022/01/24 16:03:31;;;;;;;;;;;;;;;;;;5001729;28;1476;-82
2022/01/24 16:05:56;;;;;;;;;;;;;;;;;;5003059;28;1729;-82
2022/01/24 16:08:22;;;;;;;;;;;;;;;;;;5000678;28;1262;-82
2022/01/24 16:10:47;;;;;;;;;;;;;;;;;;5000002;28;1588;-83
2022/01/24 16:13:12;;;;;;;;;;;;;;;;;;5001759;28;1408;-82
2022/01/24 16:15:40;;;;;;;;;;;;;;;;;;5001121;28;1970;-83
2022/01/24 16:18:07;;;;;;;;;;;;;;;;;;5001235;28;1481;-83
2022/01/24 16:20:39;;;;;;;;;;;;;;;;;;5000402;28;1355;-83
2022/01/24 16:23:17;;;;;;;;;;;;;;;;;;5002997;28;1588;-83
2022/01/24 16:25:44;;;;;;;;;;;;;;;;;;5000711;28;1604;-83
2022/01/24 16:28:21;;;;;;;;;;;;;;;;;;5000876;28;1443;-83
2022/01/24 16:30:47;;;;;;;;;;;;;;;;;;5000308;28;1619;-84
2022/01/24 16:33:13;;;;;;;;;;;;;;;;;;5000387;28;1651;-83
2022/01/24 16:35:38;;;;;;;;;;;;;;;;;;4997973;28;1972;-83
2022/01/24 16:38:04;;;;;;;;;;;;;;;;;;5001792;28;1645;-83
2022/01/24 16:48:31;;;;;;;;;;;;;;;;;;5004860;28;1602;-84
2022/01/24 16:50:56;;;;;;;;;;;;;;;;;;5003803;28;1623;-85
2022/01/24 16:53:22;;;;;;;;;;;;;;;;;;5004438;28;1796;-84
2022/01/24 16:55:48;;;;;;;;;;;;;;;;;;5002928;28;1910;-85
2022/01/24 16:58:13;;;;;;;;;;;;;;;;;;5005315;28;1651;-85
2022/01/24 17:00:38;;;;;;;;;;;;;;;;;;5003819;28;1632;-85
2022/01/24 17:03:04;;;;;;;;;;;;;;;;;;5004537;28;1577;-85
2022/01/24 17:05:29;;;;;;;;;;;;;;;;;;5003095;28;1607;-85
2022/01/24 17:07:54;;;;;;;;;;;;;;;;;;5003533;28;1616;-85
2022/01/24 17:10:19;;;;;;;;;;;;;;;;;;5002485;28;1687;-84
2022/01/24 17:12:47;;;;;;;;;;;;;;;;;;5004885;28;1568;-84
2022/01/24 17:15:13;;;;;;;;;;;;;;;;;;5002283;28;1899;-84
2022/01/24 17:17:38;;;;;;;;;;;;;;;;;;5005134;28;1736;-84
2022/01/24 17:20:03;;;;;;;;;;;;;;;;;;5004866;28;1707;-84
2022/01/24 17:22:29;;;;;;;;;;;;;;;;;;5000172;28;1581;-85
2022/01/24 17:24:54;;;;;;;;;;;;;;;;;;5004142;28;1714;-84
2022/01/24 17:27:20;;;;;;;;;;;;;;;;;;5004533;28;1784;-84
2022/01/24 17:29:45;;;;;;;;;;;;;;;;;;5002853;28;1656;-84
2022/01/24 17:32:10;;;;;;;;;;;;;;;;;;5002216;28;1620;-83
2022/01/24 17:34:35;;;;;;;;;;;;;;;;;;5002766;28;1906;-83
2022/01/24 17:37:04;;;;;;;;;;;;;;;;;;5000933;28;1669;-83
2022/01/24 17:39:30;;;;;;;;;;;;;;;;;;5008373;28;1700;-83
2022/01/24 17:41:55;;;;;;;;;;;;;;;;;;5004228;28;1294;-83
2022/01/24 17:44:20;;;;;;;;;;;;;;;;;;5002538;28;1649;-83
2022/01/24 17:46:45;;;;;;;;;;;;;;;;;;5001820;28;1852;-84
2022/01/24 17:49:11;;;;;;;;;;;;;;;;;;5005590;28;1695;-83
2022/01/24 17:51:36;;;;;;;;;;;;;;;;;;5002992;28;1503;-84
2022/01/24 17:54:04;;;;;;;;;;;;;;;;;;5001763;28;1886;-84
2022/01/24 17:56:29;;;;;;;;;;;;;;;;;;5002604;28;1350;-84
2022/01/24 17:58:54;;;;;;;;;;;;;;;;;;5009520;28;1627;-84
2022/01/24 18:01:20;;;;;;;;;;;;;;;;;;5005212;28;1522;-83
2022/01/24 18:03:45;;;;;;;;;;;;;;;;;;5004844;28;1345;-84
2022/01/24 18:06:12;;;;;;;;;;;;;;;;;;5002913;28;1733;-84
2022/01/24 18:08:39;;;;;;;;;;;;;;;;;;5004413;28;1314;-85
2022/01/24 18:11:05;;;;;;;;;;;;;;;;;;5002369;28;1632;-84
2022/01/24 18:13:30;;;;;;;;;;;;;;;;;;5003343;28;1327;-85
2022/01/24 18:15:57;;;;;;;;;;;;;;;;;;5001921;28;1887;-85
2022/01/24 18:18:22;;;;;;;;;;;;;;;;;;5002152;28;1513;-85
2022/01/24 18:20:47;;;;;;;;;;;;;;;;;;5004094;28;1528;-85
2022/01/24 18:23:12;;;;;;;;;;;;;;;;;;5004392;28;1218;-84
2022/01/24 18:25:38;;;;;;;;;;;;;;;;;;5004515;28;1580;-84
2022/01/24 18:28:03;;;;;;;;;;;;;;;;;;5003246;28;1341;-84
2022/01/24 18:30:29;;;;;;;;;;;;;;;;;;5004120;28;1757;-84
2022/01/24 18:32:54;;;;;;;;;;;;;;;;;;5002515;28;1296;-84
2022/01/24 18:35:19;;;;;;;;;;;;;;;;;;5002403;28;1965;-84
2022/01/24 18:37:44;;;;;;;;;;;;;;;;;;5003993;28;1412;-85
2022/01/24 18:40:10;;;;;;;;;;;;;;;;;;5003938;28;1345;-84
2022/01/24 18:42:35;;;;;;;;;;;;;;;;;;5003580;28;1545;-84
2022/01/24 18:45:04;;;;;;;;;;;;;;;;;;5002469;28;1374;-82
2022/01/24 18:47:29;;;;;;;;;;;;;;;;;;5002848;28;1608;-82
2022/01/24 18:49:55;;;;;;;;;;;;;;;;;;5001227;28;1673;-84
2022/01/24 18:52:21;;;;;;;;;;;;;;;;;;5004750;28;1612;-84
2022/01/24 18:54:46;;;;;;;;;;;;;;;;;;4985374;28;2237;-83